createdAt,value
2023-04-16T00:00:48.563Z,10.82
2023-04-16T00:03:35.445Z,10.79
2023-04-16T00:06:08.530Z,10.76
2023-04-16T00:08:37.303Z,10.38
2023-04-16T00:11:07.767Z,10.16
2023-04-16T00:13:36.809Z,10.28
2023-04-16T00:16:05.583Z,10.60
2023-04-16T00:18:32.886Z,10.51
2023-04-16T00:21:04.750Z,10.62
2023-04-16T00:23:51.569Z,10.17
2023-04-16T00:26:19.119Z,9.98
2023-04-16T00:28:48.375Z,9.82
2023-04-16T00:31:16.224Z,9.86
2023-04-16T00:33:43.625Z,10.04
2023-04-16T00:36:12.681Z,10.17
2023-04-16T00:38:40.604Z,10.11
2023-04-16T00:41:08.541Z,10.07
2023-04-16T00:43:38.262Z,9.93
2023-04-16T00:46:09.166Z,9.50
2023-04-16T00:48:38.742Z,9.49
2023-04-16T00:51:08.406Z,9.34
2023-04-16T00:53:36.094Z,9.36
2023-04-16T00:56:05.790Z,9.56
2023-04-16T00:58:35.235Z,9.53
2023-04-16T01:01:04.605Z,9.67
2023-04-16T01:03:47.801Z,9.63
2023-04-16T01:06:17.841Z,9.60
2023-04-16T01:08:45.649Z,9.77
2023-04-16T01:11:15.223Z,9.52
2023-04-16T01:13:42.779Z,9.43
2023-04-16T01:16:12.528Z,9.61
2023-04-16T01:18:40.135Z,9.30
2023-04-16T01:21:07.861Z,9.21
2023-04-16T01:23:39.406Z,9.34
2023-04-16T01:26:10.165Z,9.43
2023-04-16T01:28:38.576Z,9.30
2023-04-16T01:31:06.336Z,9.55
2023-04-16T01:33:44.867Z,9.54
2023-04-16T01:36:13.284Z,9.59
2023-04-16T01:38:40.563Z,9.25
2023-04-16T01:41:08.195Z,9.02
2023-04-16T01:43:38.422Z,8.97
2023-04-16T01:46:16.490Z,9.22
2023-04-16T01:48:44.009Z,9.16
2023-04-16T01:51:11.756Z,9.38
2023-04-16T01:53:39.274Z,9.49
2023-04-16T01:56:07.201Z,9.76
2023-04-16T01:58:35.735Z,9.14
2023-04-16T02:01:04.624Z,9.09
2023-04-16T02:03:33.029Z,9.20
2023-04-16T02:06:01.416Z,9.10
2023-04-16T02:08:29.637Z,9.30
2023-04-16T02:10:57.752Z,9.23
2023-04-16T02:13:26.316Z,9.47
2023-04-16T02:15:54.238Z,9.49
2023-04-16T02:18:32.691Z,9.50
2023-04-16T02:21:00.689Z,9.50
2023-04-16T02:23:29.129Z,9.44
2023-04-16T02:25:58.606Z,9.22
2023-04-16T02:28:25.972Z,9.13
2023-04-16T02:30:53.514Z,9.17
2023-04-16T02:33:21.889Z,9.13
2023-04-16T02:36:00.520Z,9.38
2023-04-16T02:38:27.870Z,9.38
2023-04-16T02:40:55.943Z,9.42
2023-04-16T02:43:23.483Z,9.36
2023-04-16T02:45:51.408Z,9.25
2023-04-16T02:48:18.703Z,9.24
2023-04-16T02:50:46.255Z,9.19
2023-04-16T02:53:13.494Z,9.46
2023-04-16T02:55:41.195Z,9.64
2023-04-16T02:58:08.607Z,9.64
2023-04-16T03:00:36.393Z,9.24
2023-04-16T03:03:03.946Z,9.39
2023-04-16T03:05:31.623Z,9.10
2023-04-16T03:07:58.837Z,9.27
2023-04-16T03:10:26.735Z,9.37
2023-04-16T03:12:55.772Z,9.26
2023-04-16T03:15:24.217Z,9.31
2023-04-16T03:17:51.481Z,9.29
2023-04-16T03:20:20.867Z,9.31
2023-04-16T03:22:48.380Z,9.08
2023-04-16T03:25:16.017Z,9.18
2023-04-16T03:27:43.309Z,9.02
2023-04-16T03:30:13.482Z,9.05
2023-04-16T03:32:42.402Z,9.24
2023-04-16T03:35:11.305Z,9.46
2023-04-16T03:37:38.747Z,9.23
2023-04-16T03:40:09.137Z,9.33
2023-04-16T03:42:36.817Z,9.28
2023-04-16T03:45:09.568Z,9.26
2023-04-16T03:47:38.181Z,9.59
2023-04-16T03:50:06.276Z,9.66
2023-04-16T03:52:34.925Z,9.67
2023-04-16T03:55:04.067Z,9.54
2023-04-16T03:57:32.208Z,9.62
2023-04-16T04:00:09.519Z,9.65
2023-04-16T04:02:55.437Z,9.69
2023-04-16T04:05:23.817Z,9.70
2023-04-16T04:07:52.552Z,9.52
2023-04-16T04:10:20.104Z,9.50
2023-04-16T04:12:47.447Z,9.50
2023-04-16T04:15:15.244Z,9.53
2023-04-16T04:17:43.207Z,9.55
2023-04-16T04:20:11.856Z,9.54
2023-04-16T04:22:39.400Z,9.71
2023-04-16T04:25:08.910Z,9.74
2023-04-16T04:27:36.396Z,9.75
2023-04-16T04:30:05.060Z,9.83
2023-04-16T04:32:33.755Z,9.87
2023-04-16T04:35:02.926Z,10.03
2023-04-16T04:37:30.189Z,10.13
2023-04-16T04:39:58.528Z,10.10
2023-04-16T04:42:25.940Z,10.26
2023-04-16T04:44:55.291Z,10.33
2023-04-16T04:47:23.824Z,10.21
2023-04-16T04:49:55.127Z,10.08
2023-04-16T04:52:22.517Z,10.26
2023-04-16T04:54:50.717Z,10.60
2023-04-16T04:57:18.002Z,10.67
2023-04-16T04:59:45.863Z,10.72
2023-04-16T05:02:14.720Z,10.81
2023-04-16T05:04:42.565Z,10.78
2023-04-16T05:07:09.929Z,10.70
2023-04-16T05:09:40.813Z,10.79
2023-04-16T05:12:09.409Z,11.09
2023-04-16T05:14:37.000Z,11.14
2023-04-16T05:17:04.663Z,10.95
2023-04-16T05:19:33.102Z,10.77
2023-04-16T05:22:00.435Z,10.89
2023-04-16T05:24:28.262Z,10.82
2023-04-16T05:26:56.860Z,10.81
2023-04-16T05:29:24.510Z,10.59
2023-04-16T05:31:54.043Z,10.71
2023-04-16T05:34:21.647Z,10.88
2023-04-16T05:36:49.160Z,10.74
2023-04-16T05:39:17.424Z,10.95
2023-04-16T05:41:45.707Z,11.15
2023-04-16T05:44:13.522Z,11.27
2023-04-16T05:46:41.273Z,11.27
2023-04-16T05:49:09.229Z,11.43
2023-04-16T05:51:36.788Z,11.69
2023-04-16T05:54:04.516Z,11.86
2023-04-16T05:56:31.821Z,11.82
2023-04-16T05:58:59.479Z,12.05
2023-04-16T06:01:26.882Z,12.12
2023-04-16T06:03:57.462Z,12.34
2023-04-16T06:06:24.931Z,12.41
2023-04-16T06:08:52.545Z,12.66
2023-04-16T06:11:19.980Z,13.04
2023-04-16T06:13:47.651Z,13.43
2023-04-16T06:16:15.082Z,13.78
2023-04-16T06:18:42.729Z,14.00
2023-04-16T06:21:10.479Z,14.27
2023-04-16T06:23:38.160Z,14.39
2023-04-16T06:26:05.836Z,14.52
2023-04-16T06:28:33.435Z,14.47
2023-04-16T06:31:01.293Z,14.13
2023-04-16T06:33:28.955Z,14.00
2023-04-16T06:35:56.733Z,13.89
2023-04-16T06:38:24.378Z,14.02
2023-04-16T06:40:52.048Z,13.87
2023-04-16T06:43:19.999Z,14.22
2023-04-16T06:45:47.305Z,14.36
2023-04-16T06:48:14.989Z,14.62
2023-04-16T06:50:42.423Z,14.88
2023-04-16T06:53:10.250Z,15.04
2023-04-16T06:55:40.118Z,15.41
2023-04-16T06:58:07.825Z,15.56
2023-04-16T07:00:35.305Z,15.96
2023-04-16T07:03:03.547Z,16.25
2023-04-16T07:05:31.837Z,15.73
2023-04-16T07:07:59.830Z,15.80
2023-04-16T07:10:27.157Z,15.73
2023-04-16T07:12:55.120Z,15.80
2023-04-16T07:15:22.461Z,15.61
2023-04-16T07:17:50.366Z,16.40
2023-04-16T07:20:18.048Z,15.90
2023-04-16T07:22:46.109Z,16.11
2023-04-16T07:25:13.507Z,16.86
2023-04-16T07:27:45.370Z,16.69
2023-04-16T07:30:12.870Z,17.42
2023-04-16T07:32:41.158Z,17.36
2023-04-16T07:35:33.927Z,18.28
2023-04-16T07:38:02.062Z,18.00
2023-04-16T07:40:31.434Z,18.15
2023-04-16T07:43:00.937Z,17.89
2023-04-16T07:45:29.799Z,17.68
2023-04-16T07:47:59.778Z,17.76
2023-04-16T07:50:28.632Z,18.07
2023-04-16T07:52:56.186Z,18.14
2023-04-16T07:55:23.753Z,18.67
2023-04-16T07:57:51.718Z,18.69
2023-04-16T08:00:19.566Z,19.08
2023-04-16T08:02:47.725Z,19.46
2023-04-16T08:05:15.658Z,19.59
2023-04-16T08:07:43.457Z,19.44
2023-04-16T08:10:11.329Z,19.44
2023-04-16T08:12:39.226Z,18.89
2023-04-16T08:15:07.525Z,18.53
2023-04-16T08:17:35.610Z,18.14
2023-04-16T08:20:06.999Z,19.00
2023-04-16T08:22:34.931Z,20.00
2023-04-16T08:25:03.034Z,19.62
2023-04-16T08:27:30.858Z,20.37
2023-04-16T08:29:58.313Z,19.78
2023-04-16T08:32:27.262Z,19.84
2023-04-16T08:34:55.436Z,19.70
2023-04-16T08:37:24.669Z,19.28
2023-04-16T08:39:52.165Z,19.92
2023-04-16T08:42:29.642Z,20.34
2023-04-16T08:45:10.025Z,20.75
2023-04-16T08:47:38.028Z,21.05
2023-04-16T08:50:06.471Z,20.99
2023-04-16T08:52:37.910Z,21.92
2023-04-16T08:55:12.231Z,21.63
2023-04-16T08:57:54.595Z,20.26
2023-04-16T09:00:22.448Z,21.17
2023-04-16T09:02:51.573Z,19.47
2023-04-16T09:05:25.596Z,20.02
2023-04-16T09:07:54.796Z,19.77
2023-04-16T09:10:23.850Z,19.63
2023-04-16T09:12:52.322Z,20.23
2023-04-16T09:15:21.543Z,20.26
2023-04-16T09:17:49.487Z,20.25
2023-04-16T09:20:17.756Z,19.42
2023-04-16T09:22:46.687Z,20.05
2023-04-16T09:25:16.395Z,20.18
2023-04-16T09:27:49.309Z,18.65
2023-04-16T09:30:24.854Z,19.23
2023-04-16T09:32:53.758Z,19.30
2023-04-16T09:35:21.655Z,18.74
2023-04-16T09:37:57.802Z,19.07
2023-04-16T09:40:27.524Z,20.42
2023-04-16T09:42:58.836Z,20.23
2023-04-16T09:45:26.664Z,20.99
2023-04-16T09:48:04.205Z,20.00
2023-04-16T09:50:31.722Z,19.65
2023-04-16T09:53:08.628Z,20.63
2023-04-16T09:55:36.224Z,21.11
2023-04-16T09:58:03.960Z,20.90
2023-04-16T10:00:31.818Z,20.89
2023-04-16T10:03:07.577Z,21.14
2023-04-16T10:05:35.645Z,21.77
2023-04-16T10:08:03.912Z,21.80
2023-04-16T10:10:32.535Z,21.90
2023-04-16T10:13:02.714Z,21.01
2023-04-16T10:15:30.713Z,20.94
2023-04-16T10:17:58.956Z,21.03
2023-04-16T10:20:26.973Z,21.30
2023-04-16T10:22:55.068Z,21.52
2023-04-16T10:25:24.268Z,22.03
2023-04-16T10:27:54.116Z,22.07
2023-04-16T10:30:22.422Z,22.11
2023-04-16T10:32:51.239Z,22.30
2023-04-16T10:35:21.815Z,21.40
2023-04-16T10:37:51.623Z,21.55
2023-04-16T10:40:27.953Z,20.93
2023-04-16T10:42:57.196Z,20.22
2023-04-16T10:45:32.823Z,20.05
2023-04-16T10:48:07.179Z,19.84
2023-04-16T10:50:36.190Z,19.85
2023-04-16T10:53:26.803Z,19.84
2023-04-16T10:56:15.684Z,20.65
2023-04-16T10:58:43.458Z,21.87
2023-04-16T11:01:17.083Z,22.70
2023-04-16T11:03:47.538Z,21.51
2023-04-16T11:06:25.179Z,21.34
2023-04-16T11:08:55.306Z,21.46
2023-04-16T11:11:23.486Z,21.48
2023-04-16T11:13:57.059Z,22.62
2023-04-16T11:16:26.199Z,22.92
2023-04-16T11:18:55.620Z,23.58
2023-04-16T11:21:24.731Z,23.60
2023-04-16T11:23:55.362Z,23.48
2023-04-16T11:26:28.040Z,22.48
2023-04-16T11:28:57.291Z,22.17
2023-04-16T11:31:28.446Z,22.17
2023-04-16T11:33:57.951Z,22.94
2023-04-16T11:36:27.456Z,23.35
2023-04-16T11:39:02.366Z,23.49
2023-04-16T11:41:29.699Z,23.16
2023-04-16T11:43:57.629Z,21.75
2023-04-16T11:46:43.611Z,21.50
2023-04-16T11:49:12.140Z,21.20
2023-04-16T11:51:41.373Z,20.90
2023-04-16T11:54:11.997Z,22.39
2023-04-16T11:56:50.588Z,23.31
2023-04-16T11:59:24.302Z,23.79
2023-04-16T12:01:58.682Z,24.56
2023-04-16T12:04:27.669Z,24.79
2023-04-16T12:07:11.521Z,25.19
2023-04-16T12:09:41.738Z,25.20
2023-04-16T12:12:31.648Z,24.90
2023-04-16T12:15:00.340Z,25.08
2023-04-16T12:17:27.659Z,25.51
2023-04-16T12:20:00.755Z,24.54
2023-04-16T12:22:40.093Z,23.99
2023-04-16T12:25:12.677Z,23.83
2023-04-16T12:27:47.401Z,24.15
2023-04-16T12:30:21.197Z,24.67
2023-04-16T12:32:50.647Z,24.23
2023-04-16T12:35:32.582Z,23.18
2023-04-16T12:38:03.628Z,23.02
2023-04-16T12:40:31.584Z,22.68
2023-04-16T12:42:59.071Z,22.32
2023-04-16T12:45:26.998Z,22.54
2023-04-16T12:47:56.919Z,22.91
2023-04-16T12:50:24.951Z,23.15
2023-04-16T12:52:52.450Z,23.07
2023-04-16T12:55:20.802Z,22.79
2023-04-16T12:57:49.136Z,22.39
2023-04-16T13:00:17.273Z,22.04
2023-04-16T13:02:45.802Z,21.92
2023-04-16T13:05:16.764Z,21.97
2023-04-16T13:07:44.112Z,22.47
2023-04-16T13:10:12.849Z,23.07
2023-04-16T13:12:41.274Z,23.63
2023-04-16T13:15:12.456Z,23.45
2023-04-16T13:17:40.009Z,22.78
2023-04-16T13:20:10.038Z,22.63
2023-04-16T13:22:37.848Z,22.41
2023-04-16T13:25:06.273Z,21.81
2023-04-16T13:27:33.615Z,21.37
2023-04-16T13:30:01.917Z,21.33
2023-04-16T13:32:29.419Z,21.04
2023-04-16T13:34:57.184Z,20.62
2023-04-16T13:37:24.591Z,20.28
2023-04-16T13:39:52.189Z,20.24
2023-04-16T13:42:19.406Z,20.43
2023-04-16T13:44:49.442Z,20.70
2023-04-16T13:47:17.435Z,20.50
2023-04-16T13:49:45.038Z,20.57
2023-04-16T13:52:12.340Z,20.14
2023-04-16T13:54:41.633Z,20.17
2023-04-16T13:57:19.989Z,20.46
2023-04-16T13:59:47.722Z,21.04
2023-04-16T14:02:15.251Z,21.81
2023-04-16T14:04:42.941Z,22.08
2023-04-16T14:07:10.453Z,22.15
2023-04-16T14:09:37.996Z,21.91
2023-04-16T14:12:05.922Z,21.64
2023-04-16T14:14:36.097Z,21.20
2023-04-16T14:17:07.610Z,21.18
2023-04-16T14:19:35.255Z,21.02
2023-04-16T14:22:02.534Z,20.93
2023-04-16T14:24:30.531Z,21.16
2023-04-16T14:26:57.939Z,21.09
2023-04-16T14:29:25.946Z,20.93
2023-04-16T14:31:54.207Z,21.01
2023-04-16T14:34:22.919Z,20.82
2023-04-16T14:36:52.050Z,20.79
2023-04-16T14:39:19.753Z,20.58
2023-04-16T14:41:47.004Z,20.62
2023-04-16T14:44:16.614Z,20.63
2023-04-16T14:46:43.963Z,20.78
2023-04-16T14:49:12.558Z,20.92
2023-04-16T14:51:40.929Z,20.82
2023-04-16T14:54:09.738Z,20.76
2023-04-16T14:56:37.109Z,20.74
2023-04-16T14:59:04.706Z,20.41
2023-04-16T15:01:33.680Z,20.46
2023-04-16T15:04:02.980Z,20.43
2023-04-16T15:06:30.488Z,20.11
2023-04-16T15:08:59.879Z,19.97
2023-04-16T15:11:27.215Z,20.10
2023-04-16T15:13:54.801Z,19.99
2023-04-16T15:16:22.219Z,19.99
2023-04-16T15:18:50.902Z,19.91
2023-04-16T15:21:18.458Z,19.84
2023-04-16T15:23:46.326Z,19.77
2023-04-16T15:26:14.054Z,20.19
2023-04-16T15:28:43.410Z,20.14
2023-04-16T15:31:12.014Z,20.23
2023-04-16T15:33:39.756Z,20.08
2023-04-16T15:36:11.605Z,20.31
2023-04-16T15:38:40.943Z,20.35
2023-04-16T15:41:10.940Z,20.26
2023-04-16T15:43:40.689Z,20.08
2023-04-16T15:46:10.127Z,19.67
2023-04-16T15:48:38.005Z,19.98
2023-04-16T15:51:05.829Z,19.63
2023-04-16T15:53:34.799Z,19.59
2023-04-16T15:56:05.122Z,19.46
2023-04-16T15:58:32.724Z,19.26
2023-04-16T16:01:01.856Z,19.26
2023-04-16T16:03:30.063Z,19.36
2023-04-16T16:05:59.344Z,19.29
2023-04-16T16:08:27.534Z,19.26
2023-04-16T16:10:57.376Z,19.18
2023-04-16T16:13:27.030Z,19.12
2023-04-16T16:15:55.005Z,18.91
2023-04-16T16:18:23.658Z,18.51
2023-04-16T16:20:56.168Z,18.54
2023-04-16T16:23:25.485Z,18.40
2023-04-16T16:25:52.795Z,18.26
2023-04-16T16:28:21.438Z,18.05
2023-04-16T16:30:51.340Z,17.93
2023-04-16T16:33:19.226Z,17.65
2023-04-16T16:35:46.594Z,17.51
2023-04-16T16:38:14.217Z,17.27
2023-04-16T16:40:41.547Z,17.19
2023-04-16T16:43:09.531Z,17.14
2023-04-16T16:45:37.126Z,17.08
2023-04-16T16:48:05.123Z,17.06
2023-04-16T16:50:33.004Z,16.90
2023-04-16T16:53:00.807Z,16.92
2023-04-16T16:55:28.227Z,16.61
2023-04-16T16:57:56.201Z,16.66
2023-04-16T17:00:23.763Z,16.67
2023-04-16T17:02:52.222Z,16.54
2023-04-16T17:05:20.045Z,16.55
2023-04-16T17:07:47.708Z,16.57
2023-04-16T17:10:20.406Z,16.58
2023-04-16T17:12:49.081Z,16.39
2023-04-16T17:15:18.588Z,16.20
2023-04-16T17:17:48.397Z,16.17
2023-04-16T17:20:16.143Z,16.04
2023-04-16T17:22:44.262Z,16.20
2023-04-16T17:25:12.596Z,16.19
2023-04-16T17:27:40.699Z,16.27
2023-04-16T17:30:08.802Z,16.11
2023-04-16T17:32:37.550Z,15.97
2023-04-16T17:35:07.013Z,16.02
2023-04-16T17:37:35.353Z,15.88
2023-04-16T17:40:07.774Z,15.71
2023-04-16T17:42:37.956Z,15.82
2023-04-16T17:45:05.798Z,15.72
2023-04-16T17:47:36.763Z,15.54
2023-04-16T17:50:05.201Z,15.71
2023-04-16T17:52:32.970Z,15.61
2023-04-16T17:55:07.926Z,15.53
2023-04-16T17:57:37.785Z,15.51
2023-04-16T18:00:11.533Z,15.41
2023-04-16T18:02:41.169Z,15.27
2023-04-16T18:05:09.491Z,15.24
2023-04-16T18:07:40.009Z,15.36
2023-04-16T18:10:08.301Z,15.33
2023-04-16T18:12:39.026Z,15.48
2023-04-16T18:15:07.369Z,15.36
2023-04-16T18:17:35.438Z,15.55
2023-04-16T18:20:07.199Z,15.42
2023-04-16T18:22:35.055Z,15.21
2023-04-16T18:25:02.372Z,15.29
2023-04-16T18:27:31.085Z,15.08
2023-04-16T18:29:58.454Z,15.03
2023-04-16T18:32:30.868Z,14.87
2023-04-16T18:34:58.666Z,14.79
2023-04-16T18:37:31.945Z,15.01
2023-04-16T18:40:06.337Z,14.92
2023-04-16T18:42:37.965Z,14.91
2023-04-16T18:45:12.513Z,14.90
2023-04-16T18:47:42.469Z,14.89
2023-04-16T18:50:10.034Z,14.61
2023-04-16T18:52:38.928Z,14.69
2023-04-16T18:55:07.040Z,14.55
2023-04-16T18:57:36.091Z,14.62
2023-04-16T19:00:11.360Z,14.43
2023-04-16T19:02:40.722Z,14.68
2023-04-16T19:05:09.934Z,14.80
2023-04-16T19:07:38.828Z,14.72
2023-04-16T19:10:06.898Z,14.74
2023-04-16T19:12:34.545Z,14.65
2023-04-16T19:15:02.915Z,14.57
2023-04-16T19:17:32.059Z,14.52
2023-04-16T19:19:59.924Z,14.39
2023-04-16T19:22:33.398Z,14.29
2023-04-16T19:25:24.663Z,14.49
2023-04-16T19:27:56.168Z,14.57
2023-04-16T19:30:23.627Z,14.39
2023-04-16T19:32:52.653Z,14.38
2023-04-16T19:35:21.561Z,14.32
2023-04-16T19:37:49.669Z,14.45
2023-04-16T19:40:17.297Z,14.44
2023-04-16T19:42:49.654Z,14.44
2023-04-16T19:45:18.458Z,14.39
2023-04-16T19:47:48.866Z,14.38
2023-04-16T19:50:16.966Z,14.35
2023-04-16T19:52:45.318Z,14.41
2023-04-16T19:55:14.062Z,14.40
2023-04-16T19:57:41.772Z,14.39
2023-04-16T20:00:12.065Z,14.43
2023-04-16T20:02:41.302Z,14.22
2023-04-16T20:05:11.215Z,14.21
2023-04-16T20:07:38.809Z,14.23
2023-04-16T20:10:07.771Z,14.40
2023-04-16T20:12:36.236Z,14.19
2023-04-16T20:15:08.605Z,14.20
2023-04-16T20:17:37.393Z,14.34
2023-04-16T20:20:10.309Z,14.25
2023-04-16T20:22:39.052Z,14.03
2023-04-16T20:25:07.701Z,14.01
2023-04-16T20:27:35.923Z,13.91
2023-04-16T20:30:05.779Z,14.15
2023-04-16T20:32:33.665Z,14.05
2023-04-16T20:35:05.262Z,13.75
2023-04-16T20:37:38.206Z,13.77
2023-04-16T20:40:10.367Z,13.69
2023-04-16T20:42:38.171Z,13.63
2023-04-16T20:45:06.188Z,13.70
2023-04-16T20:47:35.080Z,13.79
2023-04-16T20:50:06.040Z,13.56
2023-04-16T20:52:34.356Z,13.54
2023-04-16T20:55:01.686Z,13.58
2023-04-16T20:57:29.882Z,13.65
2023-04-16T20:59:57.918Z,13.82
2023-04-16T21:02:28.371Z,13.81
2023-04-16T21:04:56.612Z,13.50
2023-04-16T21:07:25.606Z,13.39
2023-04-16T21:09:54.440Z,13.67
2023-04-16T21:12:22.047Z,13.71
2023-04-16T21:14:49.330Z,13.44
2023-04-16T21:17:16.898Z,13.39
2023-04-16T21:19:44.201Z,13.32
2023-04-16T21:22:12.778Z,13.35
2023-04-16T21:24:40.179Z,13.38
2023-04-16T21:27:09.833Z,13.46
2023-04-16T21:29:37.092Z,13.37
2023-04-16T21:32:05.003Z,13.45
2023-04-16T21:34:32.245Z,13.37
2023-04-16T21:36:59.882Z,13.53
2023-04-16T21:39:31.084Z,13.57
2023-04-16T21:41:58.743Z,13.34
2023-04-16T21:44:26.271Z,13.61
2023-04-16T21:46:53.923Z,13.75
2023-04-16T21:49:21.275Z,13.65
2023-04-16T21:51:50.352Z,13.66
2023-04-16T21:54:18.827Z,13.74
2023-04-16T21:56:47.567Z,13.57
2023-04-16T21:59:14.929Z,13.54
2023-04-16T22:01:42.883Z,13.44
2023-04-16T22:04:13.480Z,13.50
2023-04-16T22:06:46.355Z,13.60
2023-04-16T22:09:13.700Z,13.52
2023-04-16T22:11:49.859Z,13.42
2023-04-16T22:14:26.525Z,13.25
2023-04-16T22:16:56.625Z,13.29
2023-04-16T22:19:27.484Z,13.46
2023-04-16T22:21:57.095Z,13.56
2023-04-16T22:24:25.903Z,13.67
2023-04-16T22:26:56.141Z,13.43
2023-04-16T22:29:26.024Z,13.34
2023-04-16T22:31:55.555Z,13.24
2023-04-16T22:34:22.960Z,13.14
2023-04-16T22:36:56.479Z,13.07
2023-04-16T22:39:26.440Z,12.93
2023-04-16T22:41:56.563Z,12.82
2023-04-16T22:44:31.020Z,12.69
2023-04-16T22:47:01.952Z,12.62
2023-04-16T22:49:36.435Z,12.67
2023-04-16T22:52:07.539Z,12.78
2023-04-16T22:54:38.884Z,12.84
2023-04-16T22:57:23.306Z,12.50
2023-04-16T22:59:54.988Z,12.41
2023-04-16T23:02:24.891Z,12.51
2023-04-16T23:04:53.324Z,12.54
2023-04-16T23:07:23.721Z,12.75
2023-04-16T23:09:51.909Z,12.67
2023-04-16T23:12:23.721Z,12.46
2023-04-16T23:14:55.273Z,12.49
2023-04-16T23:17:30.858Z,12.58
2023-04-16T23:19:59.915Z,12.68
2023-04-16T23:22:28.537Z,12.70
2023-04-16T23:24:55.989Z,12.67
2023-04-16T23:27:26.593Z,12.68
2023-04-16T23:29:53.888Z,12.71
2023-04-16T23:32:22.391Z,12.80
2023-04-16T23:34:52.100Z,12.83
2023-04-16T23:37:26.030Z,12.84
2023-04-16T23:39:57.094Z,12.74
2023-04-16T23:42:27.316Z,12.70
2023-04-16T23:44:55.099Z,12.48
2023-04-16T23:47:26.957Z,12.13
2023-04-16T23:49:58.784Z,12.09
2023-04-16T23:52:28.456Z,11.92
2023-04-16T23:54:58.770Z,11.91
2023-04-16T23:57:27.011Z,11.91
2023-04-16T23:59:56.509Z,11.98
